sensor_id;sensor_type;location;lat;lon;timestamp;P1;durP1;ratioP1;P2;durP2;ratioP2
22138;SDS011;25815;52.582;13.408;2022-08-18T00:00:55;10.75;;;8.80;;
22138;SDS011;25815;52.582;13.408;2022-08-18T00:03:21;9.57;;;8.57;;
22138;SDS011;25815;52.582;13.408;2022-08-18T00:05:48;11.02;;;8.77;;
22138;SDS011;25815;52.582;13.408;2022-08-18T00:08:13;9.50;;;8.60;;
22138;SDS011;25815;52.582;13.408;2022-08-18T00:10:40;10.55;;;8.52;;
22138;SDS011;25815;52.582;13.408;2022-08-18T00:13:06;10.55;;;8.32;;
22138;SDS011;25815;52.582;13.408;2022-08-18T00:15:32;9.85;;;8.23;;
22138;SDS011;25815;52.582;13.408;2022-08-18T00:17:58;11.75;;;9.00;;
22138;SDS011;25815;52.582;13.408;2022-08-18T00:20:24;10.20;;;8.20;;
22138;SDS011;25815;52.582;13.408;2022-08-18T00:22:50;10.93;;;9.40;;
22138;SDS011;25815;52.582;13.408;2022-08-18T00:25:16;11.60;;;9.27;;
22138;SDS011;25815;52.582;13.408;2022-08-18T00:27:42;11.10;;;9.23;;
22138;SDS011;25815;52.582;13.408;2022-08-18T00:30:10;10.32;;;8.57;;
22138;SDS011;25815;52.582;13.408;2022-08-18T00:32:38;10.80;;;9.10;;
22138;SDS011;25815;52.582;13.408;2022-08-18T00:35:12;10.27;;;9.05;;
22138;SDS011;25815;52.582;13.408;2022-08-18T00:37:39;10.40;;;8.90;;
22138;SDS011;25815;52.582;13.408;2022-08-18T00:40:05;11.88;;;8.77;;
22138;SDS011;25815;52.582;13.408;2022-08-18T00:42:31;9.70;;;8.70;;
22138;SDS011;25815;52.582;13.408;2022-08-18T00:45:04;12.77;;;9.18;;
22138;SDS011;25815;52.582;13.408;2022-08-18T00:47:31;11.55;;;8.45;;
22138;SDS011;25815;52.582;13.408;2022-08-18T00:49:57;11.52;;;8.85;;
22138;SDS011;25815;52.582;13.408;2022-08-18T00:52:23;10.77;;;8.73;;
22138;SDS011;25815;52.582;13.408;2022-08-18T00:54:49;10.55;;;9.48;;
22138;SDS011;25815;52.582;13.408;2022-08-18T00:57:15;11.48;;;9.30;;
22138;SDS011;25815;52.582;13.408;2022-08-18T01:02:14;9.23;;;8.32;;
22138;SDS011;25815;52.582;13.408;2022-08-18T01:07:09;11.65;;;8.95;;
22138;SDS011;25815;52.582;13.408;2022-08-18T01:09:36;8.82;;;7.95;;
22138;SDS011;25815;52.582;13.408;2022-08-18T01:12:02;9.93;;;8.93;;
22138;SDS011;25815;52.582;13.408;2022-08-18T01:14:28;15.02;;;9.18;;
22138;SDS011;25815;52.582;13.408;2022-08-18T01:16:54;12.43;;;8.80;;
22138;SDS011;25815;52.582;13.408;2022-08-18T01:19:39;10.27;;;9.10;;
22138;SDS011;25815;52.582;13.408;2022-08-18T01:22:34;9.40;;;8.27;;
22138;SDS011;25815;52.582;13.408;2022-08-18T01:25:00;10.43;;;9.00;;
22138;SDS011;25815;52.582;13.408;2022-08-18T01:27:46;11.60;;;8.75;;
22138;SDS011;25815;52.582;13.408;2022-08-18T01:30:13;9.00;;;8.13;;
22138;SDS011;25815;52.582;13.408;2022-08-18T01:32:39;11.18;;;8.93;;
22138;SDS011;25815;52.582;13.408;2022-08-18T01:35:09;10.32;;;9.20;;
22138;SDS011;25815;52.582;13.408;2022-08-18T01:37:36;9.57;;;8.32;;
22138;SDS011;25815;52.582;13.408;2022-08-18T01:40:04;11.32;;;9.40;;
22138;SDS011;25815;52.582;13.408;2022-08-18T01:42:31;12.70;;;8.70;;
22138;SDS011;25815;52.582;13.408;2022-08-18T01:44:57;12.95;;;9.18;;
22138;SDS011;25815;52.582;13.408;2022-08-18T01:47:22;12.60;;;9.07;;
22138;SDS011;25815;52.582;13.408;2022-08-18T01:49:48;10.00;;;8.80;;
22138;SDS011;25815;52.582;13.408;2022-08-18T01:52:18;11.13;;;9.23;;
22138;SDS011;25815;52.582;13.408;2022-08-18T01:54:45;9.73;;;8.10;;
22138;SDS011;25815;52.582;13.408;2022-08-18T01:57:11;9.30;;;8.25;;
22138;SDS011;25815;52.582;13.408;2022-08-18T01:59:39;13.02;;;8.52;;
22138;SDS011;25815;52.582;13.408;2022-08-18T02:02:05;9.70;;;8.68;;
22138;SDS011;25815;52.582;13.408;2022-08-18T02:04:31;10.85;;;9.32;;
22138;SDS011;25815;52.582;13.408;2022-08-18T02:06:58;9.98;;;9.02;;
22138;SDS011;25815;52.582;13.408;2022-08-18T02:09:25;10.98;;;9.32;;
22138;SDS011;25815;52.582;13.408;2022-08-18T02:11:51;12.25;;;8.73;;
22138;SDS011;25815;52.582;13.408;2022-08-18T02:14:17;11.82;;;8.82;;
22138;SDS011;25815;52.582;13.408;2022-08-18T02:16:43;14.15;;;9.38;;
22138;SDS011;25815;52.582;13.408;2022-08-18T02:19:09;10.65;;;8.93;;
22138;SDS011;25815;52.582;13.408;2022-08-18T02:21:36;9.68;;;8.68;;
22138;SDS011;25815;52.582;13.408;2022-08-18T02:24:03;10.65;;;9.25;;
22138;SDS011;25815;52.582;13.408;2022-08-18T02:26:29;10.38;;;9.07;;
22138;SDS011;25815;52.582;13.408;2022-08-18T02:28:55;12.52;;;9.80;;
22138;SDS011;25815;52.582;13.408;2022-08-18T02:31:22;10.65;;;8.95;;
22138;SDS011;25815;52.582;13.408;2022-08-18T02:33:49;10.27;;;8.55;;
22138;SDS011;25815;52.582;13.408;2022-08-18T02:36:15;10.07;;;9.07;;
22138;SDS011;25815;52.582;13.408;2022-08-18T02:38:41;15.45;;;9.20;;
22138;SDS011;25815;52.582;13.408;2022-08-18T02:41:08;11.68;;;9.38;;
22138;SDS011;25815;52.582;13.408;2022-08-18T02:43:34;11.82;;;9.30;;
22138;SDS011;25815;52.582;13.408;2022-08-18T02:46:01;11.15;;;9.60;;
22138;SDS011;25815;52.582;13.408;2022-08-18T02:48:27;11.27;;;9.85;;
22138;SDS011;25815;52.582;13.408;2022-08-18T02:51:06;13.00;;;9.07;;
22138;SDS011;25815;52.582;13.408;2022-08-18T02:53:33;10.55;;;9.55;;
22138;SDS011;25815;52.582;13.408;2022-08-18T02:56:03;14.60;;;9.50;;
22138;SDS011;25815;52.582;13.408;2022-08-18T02:58:38;12.05;;;9.82;;
22138;SDS011;25815;52.582;13.408;2022-08-18T03:01:04;11.50;;;9.43;;
22138;SDS011;25815;52.582;13.408;2022-08-18T03:03:30;11.90;;;9.48;;
22138;SDS011;25815;52.582;13.408;2022-08-18T03:05:56;9.70;;;8.77;;
22138;SDS011;25815;52.582;13.408;2022-08-18T03:08:22;10.55;;;9.43;;
22138;SDS011;25815;52.582;13.408;2022-08-18T03:10:51;11.88;;;9.80;;
22138;SDS011;25815;52.582;13.408;2022-08-18T03:15:43;13.35;;;9.95;;
22138;SDS011;25815;52.582;13.408;2022-08-18T03:18:10;11.43;;;9.70;;
22138;SDS011;25815;52.582;13.408;2022-08-18T03:20:36;13.50;;;10.15;;
22138;SDS011;25815;52.582;13.408;2022-08-18T03:23:02;11.27;;;10.10;;
22138;SDS011;25815;52.582;13.408;2022-08-18T03:25:28;11.50;;;9.30;;
22138;SDS011;25815;52.582;13.408;2022-08-18T03:27:54;13.43;;;10.45;;
22138;SDS011;25815;52.582;13.408;2022-08-18T03:30:20;13.45;;;9.88;;
22138;SDS011;25815;52.582;13.408;2022-08-18T03:32:47;11.55;;;10.35;;
22138;SDS011;25815;52.582;13.408;2022-08-18T03:35:13;11.30;;;9.48;;
22138;SDS011;25815;52.582;13.408;2022-08-18T03:37:40;12.13;;;10.23;;
22138;SDS011;25815;52.582;13.408;2022-08-18T03:40:06;17.17;;;10.25;;
22138;SDS011;25815;52.582;13.408;2022-08-18T03:42:32;12.32;;;10.18;;
22138;SDS011;25815;52.582;13.408;2022-08-18T03:44:58;11.52;;;10.15;;
22138;SDS011;25815;52.582;13.408;2022-08-18T03:47:24;18.95;;;10.63;;
22138;SDS011;25815;52.582;13.408;2022-08-18T03:49:51;11.98;;;10.35;;
22138;SDS011;25815;52.582;13.408;2022-08-18T03:52:17;12.05;;;10.85;;
22138;SDS011;25815;52.582;13.408;2022-08-18T03:54:43;11.48;;;10.15;;
22138;SDS011;25815;52.582;13.408;2022-08-18T03:57:10;11.80;;;10.60;;
22138;SDS011;25815;52.582;13.408;2022-08-18T03:59:37;13.27;;;10.60;;
22138;SDS011;25815;52.582;13.408;2022-08-18T04:02:05;14.73;;;10.90;;
22138;SDS011;25815;52.582;13.408;2022-08-18T04:04:31;11.48;;;10.07;;
22138;SDS011;25815;52.582;13.408;2022-08-18T04:06:58;14.27;;;11.23;;
22138;SDS011;25815;52.582;13.408;2022-08-18T04:09:26;13.88;;;10.88;;
22138;SDS011;25815;52.582;13.408;2022-08-18T04:11:52;12.60;;;10.48;;
22138;SDS011;25815;52.582;13.408;2022-08-18T04:14:19;12.68;;;10.90;;
22138;SDS011;25815;52.582;13.408;2022-08-18T04:16:46;14.45;;;10.55;;
22138;SDS011;25815;52.582;13.408;2022-08-18T04:19:12;16.73;;;11.35;;
22138;SDS011;25815;52.582;13.408;2022-08-18T04:21:41;12.25;;;10.95;;
22138;SDS011;25815;52.582;13.408;2022-08-18T04:24:07;14.75;;;11.95;;
22138;SDS011;25815;52.582;13.408;2022-08-18T04:26:35;17.63;;;12.05;;
22138;SDS011;25815;52.582;13.408;2022-08-18T04:29:01;17.42;;;12.63;;
22138;SDS011;25815;52.582;13.408;2022-08-18T04:31:28;16.55;;;12.88;;
22138;SDS011;25815;52.582;13.408;2022-08-18T04:33:55;19.38;;;13.23;;
22138;SDS011;25815;52.582;13.408;2022-08-18T04:36:22;20.13;;;12.20;;
22138;SDS011;25815;52.582;13.408;2022-08-18T04:38:48;15.43;;;12.95;;
22138;SDS011;25815;52.582;13.408;2022-08-18T04:41:14;14.05;;;12.25;;
22138;SDS011;25815;52.582;13.408;2022-08-18T04:43:40;19.67;;;14.07;;
22138;SDS011;25815;52.582;13.408;2022-08-18T04:46:06;17.15;;;12.40;;
22138;SDS011;25815;52.582;13.408;2022-08-18T04:48:33;15.63;;;12.75;;
22138;SDS011;25815;52.582;13.408;2022-08-18T04:51:03;14.38;;;12.88;;
22138;SDS011;25815;52.582;13.408;2022-08-18T04:53:30;17.45;;;13.82;;
22138;SDS011;25815;52.582;13.408;2022-08-18T04:56:25;21.63;;;14.25;;
22138;SDS011;25815;52.582;13.408;2022-08-18T04:58:52;20.42;;;14.20;;
22138;SDS011;25815;52.582;13.408;2022-08-18T05:01:18;17.20;;;13.13;;
22138;SDS011;25815;52.582;13.408;2022-08-18T05:03:45;19.02;;;14.10;;
22138;SDS011;25815;52.582;13.408;2022-08-18T05:06:11;17.15;;;13.20;;
22138;SDS011;25815;52.582;13.408;2022-08-18T05:08:37;17.77;;;12.95;;
22138;SDS011;25815;52.582;13.408;2022-08-18T05:11:04;15.07;;;13.30;;
22138;SDS011;25815;52.582;13.408;2022-08-18T05:13:30;15.40;;;12.18;;
22138;SDS011;25815;52.582;13.408;2022-08-18T05:15:56;17.50;;;11.82;;
22138;SDS011;25815;52.582;13.408;2022-08-18T05:18:27;18.10;;;12.00;;
22138;SDS011;25815;52.582;13.408;2022-08-18T05:20:54;15.70;;;12.27;;
22138;SDS011;25815;52.582;13.408;2022-08-18T05:23:20;16.77;;;12.82;;
22138;SDS011;25815;52.582;13.408;2022-08-18T05:25:47;17.55;;;12.43;;
22138;SDS011;25815;52.582;13.408;2022-08-18T05:28:13;20.00;;;12.02;;
22138;SDS011;25815;52.582;13.408;2022-08-18T05:30:40;15.45;;;11.98;;
22138;SDS011;25815;52.582;13.408;2022-08-18T05:33:06;21.13;;;10.98;;
22138;SDS011;25815;52.582;13.408;2022-08-18T05:35:46;18.30;;;12.05;;
22138;SDS011;25815;52.582;13.408;2022-08-18T05:38:19;17.90;;;12.05;;
22138;SDS011;25815;52.582;13.408;2022-08-18T05:40:55;22.83;;;12.00;;
22138;SDS011;25815;52.582;13.408;2022-08-18T05:43:23;17.05;;;11.60;;
22138;SDS011;25815;52.582;13.408;2022-08-18T05:45:49;16.20;;;11.57;;
22138;SDS011;25815;52.582;13.408;2022-08-18T05:48:19;17.60;;;12.23;;
22138;SDS011;25815;52.582;13.408;2022-08-18T05:50:45;18.17;;;11.80;;
22138;SDS011;25815;52.582;13.408;2022-08-18T05:53:11;18.55;;;12.02;;
22138;SDS011;25815;52.582;13.408;2022-08-18T05:55:39;17.95;;;11.63;;
22138;SDS011;25815;52.582;13.408;2022-08-18T05:58:36;19.17;;;10.93;;
22138;SDS011;25815;52.582;13.408;2022-08-18T06:01:05;24.05;;;16.00;;
22138;SDS011;25815;52.582;13.408;2022-08-18T06:03:39;26.50;;;18.33;;
22138;SDS011;25815;52.582;13.408;2022-08-18T06:06:09;27.52;;;16.00;;
22138;SDS011;25815;52.582;13.408;2022-08-18T06:08:43;18.20;;;13.10;;
22138;SDS011;25815;52.582;13.408;2022-08-18T06:11:10;17.33;;;11.18;;
22138;SDS011;25815;52.582;13.408;2022-08-18T06:13:37;18.45;;;11.77;;
22138;SDS011;25815;52.582;13.408;2022-08-18T06:16:04;18.15;;;10.45;;
22138;SDS011;25815;52.582;13.408;2022-08-18T06:21:16;18.40;;;10.93;;
22138;SDS011;25815;52.582;13.408;2022-08-18T06:31:41;20.50;;;11.07;;
22138;SDS011;25815;52.582;13.408;2022-08-18T06:34:14;17.15;;;11.20;;
22138;SDS011;25815;52.582;13.408;2022-08-18T06:36:53;15.85;;;11.15;;
22138;SDS011;25815;52.582;13.408;2022-08-18T06:41:51;17.30;;;11.02;;
22138;SDS011;25815;52.582;13.408;2022-08-18T06:52:17;14.40;;;10.80;;
22138;SDS011;25815;52.582;13.408;2022-08-18T06:54:43;20.90;;;10.13;;
22138;SDS011;25815;52.582;13.408;2022-08-18T06:57:19;14.63;;;10.77;;
22138;SDS011;25815;52.582;13.408;2022-08-18T06:59:53;16.92;;;10.82;;
22138;SDS011;25815;52.582;13.408;2022-08-18T07:02:24;18.90;;;11.43;;
22138;SDS011;25815;52.582;13.408;2022-08-18T07:05:03;17.27;;;11.20;;
22138;SDS011;25815;52.582;13.408;2022-08-18T07:07:31;24.98;;;11.25;;
22138;SDS011;25815;52.582;13.408;2022-08-18T07:09:58;15.70;;;11.43;;
22138;SDS011;25815;52.582;13.408;2022-08-18T07:12:25;17.30;;;11.43;;
22138;SDS011;25815;52.582;13.408;2022-08-18T07:15:01;19.40;;;11.38;;
22138;SDS011;25815;52.582;13.408;2022-08-18T07:17:31;20.90;;;11.70;;
22138;SDS011;25815;52.582;13.408;2022-08-18T07:19:59;15.68;;;11.48;;
22138;SDS011;25815;52.582;13.408;2022-08-18T07:22:25;14.38;;;11.13;;
22138;SDS011;25815;52.582;13.408;2022-08-18T07:24:52;18.65;;;11.27;;
22138;SDS011;25815;52.582;13.408;2022-08-18T07:27:19;14.70;;;10.57;;
22138;SDS011;25815;52.582;13.408;2022-08-18T07:30:06;18.65;;;11.38;;
22138;SDS011;25815;52.582;13.408;2022-08-18T07:32:50;16.73;;;11.32;;
22138;SDS011;25815;52.582;13.408;2022-08-18T07:35:17;17.00;;;10.80;;
22138;SDS011;25815;52.582;13.408;2022-08-18T07:37:46;14.95;;;10.43;;
22138;SDS011;25815;52.582;13.408;2022-08-18T07:40:28;17.92;;;11.20;;
22138;SDS011;25815;52.582;13.408;2022-08-18T07:43:00;16.23;;;10.85;;
22138;SDS011;25815;52.582;13.408;2022-08-18T07:45:32;19.85;;;11.00;;
22138;SDS011;25815;52.582;13.408;2022-08-18T07:50:26;15.15;;;10.30;;
22138;SDS011;25815;52.582;13.408;2022-08-18T07:53:04;14.85;;;10.55;;
22138;SDS011;25815;52.582;13.408;2022-08-18T07:55:31;18.42;;;10.90;;
22138;SDS011;25815;52.582;13.408;2022-08-18T07:58:12;15.33;;;11.87;;
22138;SDS011;25815;52.582;13.408;2022-08-18T08:00:46;14.85;;;11.10;;
22138;SDS011;25815;52.582;13.408;2022-08-18T08:06:01;18.20;;;11.27;;
22138;SDS011;25815;52.582;13.408;2022-08-18T08:08:29;22.75;;;11.43;;
22138;SDS011;25815;52.582;13.408;2022-08-18T08:18:59;15.15;;;11.07;;
22138;SDS011;25815;52.582;13.408;2022-08-18T08:21:30;17.27;;;11.25;;
22138;SDS011;25815;52.582;13.408;2022-08-18T08:33:46;21.10;;;12.00;;
22138;SDS011;25815;52.582;13.408;2022-08-18T08:38:44;14.82;;;10.93;;
22138;SDS011;25815;52.582;13.408;2022-08-18T08:41:58;16.45;;;9.95;;
22138;SDS011;25815;52.582;13.408;2022-08-18T08:46:57;23.40;;;10.98;;
22138;SDS011;25815;52.582;13.408;2022-08-18T08:49:26;21.73;;;11.23;;
22138;SDS011;25815;52.582;13.408;2022-08-18T08:51:54;14.75;;;10.48;;
22138;SDS011;25815;52.582;13.408;2022-08-18T08:54:37;15.53;;;11.37;;
22138;SDS011;25815;52.582;13.408;2022-08-18T08:57:05;16.77;;;10.63;;
22138;SDS011;25815;52.582;13.408;2022-08-18T08:59:32;13.38;;;10.05;;
22138;SDS011;25815;52.582;13.408;2022-08-18T09:04:51;16.75;;;9.90;;
22138;SDS011;25815;52.582;13.408;2022-08-18T09:10:00;18.50;;;11.35;;
22138;SDS011;25815;52.582;13.408;2022-08-18T09:25:32;14.68;;;10.55;;
22138;SDS011;25815;52.582;13.408;2022-08-18T09:28:06;14.30;;;9.88;;
22138;SDS011;25815;52.582;13.408;2022-08-18T09:33:13;14.80;;;10.30;;
22138;SDS011;25815;52.582;13.408;2022-08-18T09:38:11;12.52;;;9.18;;
22138;SDS011;25815;52.582;13.408;2022-08-18T09:41:03;15.98;;;9.30;;
22138;SDS011;25815;52.582;13.408;2022-08-18T09:43:54;17.55;;;9.25;;
22138;SDS011;25815;52.582;13.408;2022-08-18T09:51:51;14.68;;;9.43;;
22138;SDS011;25815;52.582;13.408;2022-08-18T09:54:21;13.70;;;9.25;;
22138;SDS011;25815;52.582;13.408;2022-08-18T10:01:59;12.63;;;7.57;;
22138;SDS011;25815;52.582;13.408;2022-08-18T10:06:51;11.43;;;7.75;;
22138;SDS011;25815;52.582;13.408;2022-08-18T10:14:31;8.82;;;7.45;;
22138;SDS011;25815;52.582;13.408;2022-08-18T10:17:08;8.70;;;7.68;;
22138;SDS011;25815;52.582;13.408;2022-08-18T10:19:40;11.02;;;7.75;;
22138;SDS011;25815;52.582;13.408;2022-08-18T10:24:55;12.57;;;7.47;;
22138;SDS011;25815;52.582;13.408;2022-08-18T10:27:45;14.13;;;7.65;;
22138;SDS011;25815;52.582;13.408;2022-08-18T10:32:52;9.88;;;7.28;;
22138;SDS011;25815;52.582;13.408;2022-08-18T10:38:05;12.27;;;7.38;;
22138;SDS011;25815;52.582;13.408;2022-08-18T10:40:34;10.60;;;7.53;;
22138;SDS011;25815;52.582;13.408;2022-08-18T10:43:17;12.80;;;7.80;;
22138;SDS011;25815;52.582;13.408;2022-08-18T10:45:48;11.98;;;7.47;;
22138;SDS011;25815;52.582;13.408;2022-08-18T10:48:27;11.43;;;6.90;;
22138;SDS011;25815;52.582;13.408;2022-08-18T10:56:09;12.00;;;7.25;;
22138;SDS011;25815;52.582;13.408;2022-08-18T11:07:39;10.55;;;7.18;;
22138;SDS011;25815;52.582;13.408;2022-08-18T11:09:48;9.20;;;6.95;;
22138;SDS011;25815;52.582;13.408;2022-08-18T11:12:14;10.30;;;6.78;;
22138;SDS011;25815;52.582;13.408;2022-08-18T11:17:40;11.68;;;7.15;;
22138;SDS011;25815;52.582;13.408;2022-08-18T11:20:10;12.07;;;6.85;;
22138;SDS011;25815;52.582;13.408;2022-08-18T11:22:37;9.43;;;7.25;;
22138;SDS011;25815;52.582;13.408;2022-08-18T11:25:15;12.18;;;7.03;;
22138;SDS011;25815;52.582;13.408;2022-08-18T11:27:44;12.93;;;7.55;;
22138;SDS011;25815;52.582;13.408;2022-08-18T11:30:11;12.27;;;7.15;;
22138;SDS011;25815;52.582;13.408;2022-08-18T11:32:37;12.38;;;7.53;;
22138;SDS011;25815;52.582;13.408;2022-08-18T11:35:06;11.38;;;6.72;;
22138;SDS011;25815;52.582;13.408;2022-08-18T11:37:40;11.77;;;7.05;;
22138;SDS011;25815;52.582;13.408;2022-08-18T11:45:21;8.38;;;6.72;;
22138;SDS011;25815;52.582;13.408;2022-08-18T11:50:27;9.98;;;5.60;;
22138;SDS011;25815;52.582;13.408;2022-08-18T11:52:54;7.57;;;5.05;;
22138;SDS011;25815;52.582;13.408;2022-08-18T11:55:28;9.20;;;6.05;;
22138;SDS011;25815;52.582;13.408;2022-08-18T11:57:57;9.63;;;5.50;;
22138;SDS011;25815;52.582;13.408;2022-08-18T12:03:07;10.25;;;6.05;;
22138;SDS011;25815;52.582;13.408;2022-08-18T12:05:41;8.25;;;5.30;;
22138;SDS011;25815;52.582;13.408;2022-08-18T12:08:51;9.52;;;6.00;;
22138;SDS011;25815;52.582;13.408;2022-08-18T12:13:28;8.20;;;5.43;;
22138;SDS011;25815;52.582;13.408;2022-08-18T12:16:09;7.32;;;5.20;;
22138;SDS011;25815;52.582;13.408;2022-08-18T12:18:35;6.10;;;5.45;;
22138;SDS011;25815;52.582;13.408;2022-08-18T12:21:01;7.80;;;5.28;;
22138;SDS011;25815;52.582;13.408;2022-08-18T12:23:27;9.52;;;5.60;;
22138;SDS011;25815;52.582;13.408;2022-08-18T12:25:53;6.72;;;5.25;;
22138;SDS011;25815;52.582;13.408;2022-08-18T12:28:19;10.40;;;5.30;;
22138;SDS011;25815;52.582;13.408;2022-08-18T12:30:45;7.10;;;6.15;;
22138;SDS011;25815;52.582;13.408;2022-08-18T12:33:11;9.82;;;6.80;;
22138;SDS011;25815;52.582;13.408;2022-08-18T12:35:37;7.10;;;6.40;;
22138;SDS011;25815;52.582;13.408;2022-08-18T12:38:03;8.95;;;6.85;;
22138;SDS011;25815;52.582;13.408;2022-08-18T12:40:29;11.85;;;7.45;;
22138;SDS011;25815;52.582;13.408;2022-08-18T12:42:55;10.40;;;6.63;;
22138;SDS011;25815;52.582;13.408;2022-08-18T12:45:21;9.52;;;6.95;;
22138;SDS011;25815;52.582;13.408;2022-08-18T12:47:49;8.85;;;6.80;;
22138;SDS011;25815;52.582;13.408;2022-08-18T12:50:15;12.43;;;6.68;;
22138;SDS011;25815;52.582;13.408;2022-08-18T12:52:41;10.23;;;6.38;;
22138;SDS011;25815;52.582;13.408;2022-08-18T12:55:07;8.93;;;6.70;;
22138;SDS011;25815;52.582;13.408;2022-08-18T12:57:34;8.18;;;6.25;;
22138;SDS011;25815;52.582;13.408;2022-08-18T13:00:00;7.07;;;6.30;;
22138;SDS011;25815;52.582;13.408;2022-08-18T13:02:26;7.85;;;7.05;;
22138;SDS011;25815;52.582;13.408;2022-08-18T13:04:52;11.23;;;6.95;;
22138;SDS011;25815;52.582;13.408;2022-08-18T13:07:18;9.13;;;7.07;;
22138;SDS011;25815;52.582;13.408;2022-08-18T13:09:44;8.82;;;6.57;;
22138;SDS011;25815;52.582;13.408;2022-08-18T13:12:10;12.63;;;6.78;;
22138;SDS011;25815;52.582;13.408;2022-08-18T13:14:36;9.48;;;6.60;;
22138;SDS011;25815;52.582;13.408;2022-08-18T13:17:02;12.07;;;6.70;;
22138;SDS011;25815;52.582;13.408;2022-08-18T13:19:28;8.68;;;6.75;;
22138;SDS011;25815;52.582;13.408;2022-08-18T13:21:54;11.07;;;6.72;;
22138;SDS011;25815;52.582;13.408;2022-08-18T13:24:20;7.53;;;6.63;;
22138;SDS011;25815;52.582;13.408;2022-08-18T13:26:46;9.32;;;7.60;;
22138;SDS011;25815;52.582;13.408;2022-08-18T13:29:13;10.07;;;6.82;;
22138;SDS011;25815;52.582;13.408;2022-08-18T13:31:41;10.25;;;7.07;;
22138;SDS011;25815;52.582;13.408;2022-08-18T13:34:06;9.88;;;6.85;;
22138;SDS011;25815;52.582;13.408;2022-08-18T13:36:33;7.75;;;6.90;;
22138;SDS011;25815;52.582;13.408;2022-08-18T13:39:17;8.98;;;6.50;;
22138;SDS011;25815;52.582;13.408;2022-08-18T13:41:45;8.07;;;6.78;;
22138;SDS011;25815;52.582;13.408;2022-08-18T13:44:12;7.50;;;6.20;;
22138;SDS011;25815;52.582;13.408;2022-08-18T13:46:39;9.15;;;6.80;;
22138;SDS011;25815;52.582;13.408;2022-08-18T13:49:16;10.23;;;5.68;;
22138;SDS011;25815;52.582;13.408;2022-08-18T13:51:42;8.95;;;6.03;;
22138;SDS011;25815;52.582;13.408;2022-08-18T13:54:18;7.05;;;6.30;;
22138;SDS011;25815;52.582;13.408;2022-08-18T13:56:45;9.57;;;5.68;;
22138;SDS011;25815;52.582;13.408;2022-08-18T13:59:11;7.75;;;5.90;;
22138;SDS011;25815;52.582;13.408;2022-08-18T14:01:37;7.45;;;5.40;;
22138;SDS011;25815;52.582;13.408;2022-08-18T14:04:04;6.47;;;5.50;;
22138;SDS011;25815;52.582;13.408;2022-08-18T14:06:31;6.68;;;6.03;;
22138;SDS011;25815;52.582;13.408;2022-08-18T14:08:57;8.85;;;6.15;;
22138;SDS011;25815;52.582;13.408;2022-08-18T14:11:24;8.95;;;6.40;;
22138;SDS011;25815;52.582;13.408;2022-08-18T14:13:52;6.68;;;5.90;;
22138;SDS011;25815;52.582;13.408;2022-08-18T14:16:18;8.63;;;5.75;;
22138;SDS011;25815;52.582;13.408;2022-08-18T14:18:48;9.05;;;6.03;;
22138;SDS011;25815;52.582;13.408;2022-08-18T14:21:33;8.50;;;5.72;;
22138;SDS011;25815;52.582;13.408;2022-08-18T14:24:18;7.80;;;5.68;;
22138;SDS011;25815;52.582;13.408;2022-08-18T14:27:02;7.68;;;5.70;;
22138;SDS011;25815;52.582;13.408;2022-08-18T14:29:30;6.18;;;5.57;;
22138;SDS011;25815;52.582;13.408;2022-08-18T14:31:55;6.43;;;5.25;;
22138;SDS011;25815;52.582;13.408;2022-08-18T14:34:22;10.30;;;5.55;;
22138;SDS011;25815;52.582;13.408;2022-08-18T14:36:48;7.55;;;5.50;;
22138;SDS011;25815;52.582;13.408;2022-08-18T14:39:14;12.00;;;6.20;;
22138;SDS011;25815;52.582;13.408;2022-08-18T14:41:40;10.23;;;5.53;;
22138;SDS011;25815;52.582;13.408;2022-08-18T14:44:06;9.75;;;5.53;;
22138;SDS011;25815;52.582;13.408;2022-08-18T14:46:32;16.08;;;5.60;;
22138;SDS011;25815;52.582;13.408;2022-08-18T14:48:58;15.38;;;5.25;;
22138;SDS011;25815;52.582;13.408;2022-08-18T14:51:25;8.30;;;5.30;;
22138;SDS011;25815;52.582;13.408;2022-08-18T14:53:51;8.45;;;5.22;;
22138;SDS011;25815;52.582;13.408;2022-08-18T14:56:17;6.30;;;4.90;;
22138;SDS011;25815;52.582;13.408;2022-08-18T14:58:43;10.27;;;5.45;;
22138;SDS011;25815;52.582;13.408;2022-08-18T15:01:09;8.00;;;5.45;;
22138;SDS011;25815;52.582;13.408;2022-08-18T15:03:37;8.70;;;5.22;;
22138;SDS011;25815;52.582;13.408;2022-08-18T15:06:04;8.27;;;5.72;;
22138;SDS011;25815;52.582;13.408;2022-08-18T15:08:30;9.63;;;5.57;;
22138;SDS011;25815;52.582;13.408;2022-08-18T15:10:58;7.07;;;5.07;;
22138;SDS011;25815;52.582;13.408;2022-08-18T15:13:24;7.90;;;5.38;;
22138;SDS011;25815;52.582;13.408;2022-08-18T15:15:50;9.75;;;5.57;;
22138;SDS011;25815;52.582;13.408;2022-08-18T15:18:17;9.15;;;5.50;;
22138;SDS011;25815;52.582;13.408;2022-08-18T15:20:43;11.95;;;5.28;;
22138;SDS011;25815;52.582;13.408;2022-08-18T15:23:28;6.97;;;5.18;;
22138;SDS011;25815;52.582;13.408;2022-08-18T15:26:12;8.48;;;5.40;;
22138;SDS011;25815;52.582;13.408;2022-08-18T15:28:42;6.75;;;5.00;;
22138;SDS011;25815;52.582;13.408;2022-08-18T15:31:08;7.22;;;5.32;;
22138;SDS011;25815;52.582;13.408;2022-08-18T15:33:34;5.85;;;5.10;;
22138;SDS011;25815;52.582;13.408;2022-08-18T15:36:00;9.43;;;4.93;;
22138;SDS011;25815;52.582;13.408;2022-08-18T15:38:28;5.40;;;4.90;;
22138;SDS011;25815;52.582;13.408;2022-08-18T15:40:55;6.75;;;5.13;;
22138;SDS011;25815;52.582;13.408;2022-08-18T15:43:25;7.35;;;5.35;;
22138;SDS011;25815;52.582;13.408;2022-08-18T15:45:52;7.00;;;5.30;;
22138;SDS011;25815;52.582;13.408;2022-08-18T15:48:18;5.80;;;4.82;;
22138;SDS011;25815;52.582;13.408;2022-08-18T15:50:44;6.38;;;5.22;;
22138;SDS011;25815;52.582;13.408;2022-08-18T15:53:13;6.95;;;5.30;;
22138;SDS011;25815;52.582;13.408;2022-08-18T15:55:39;7.65;;;4.97;;
22138;SDS011;25815;52.582;13.408;2022-08-18T15:58:06;5.63;;;5.05;;
22138;SDS011;25815;52.582;13.408;2022-08-18T16:00:32;12.02;;;5.30;;
22138;SDS011;25815;52.582;13.408;2022-08-18T16:02:59;5.90;;;5.30;;
22138;SDS011;25815;52.582;13.408;2022-08-18T16:05:26;8.95;;;5.03;;
22138;SDS011;25815;52.582;13.408;2022-08-18T16:07:54;6.93;;;5.10;;
22138;SDS011;25815;52.582;13.408;2022-08-18T16:10:21;6.57;;;4.53;;
22138;SDS011;25815;52.582;13.408;2022-08-18T16:12:48;8.38;;;5.13;;
22138;SDS011;25815;52.582;13.408;2022-08-18T16:15:16;7.20;;;5.10;;
22138;SDS011;25815;52.582;13.408;2022-08-18T16:17:42;6.63;;;5.10;;
22138;SDS011;25815;52.582;13.408;2022-08-18T16:20:09;8.23;;;5.07;;
22138;SDS011;25815;52.582;13.408;2022-08-18T16:22:35;6.45;;;5.60;;
22138;SDS011;25815;52.582;13.408;2022-08-18T16:25:02;10.48;;;6.07;;
22138;SDS011;25815;52.582;13.408;2022-08-18T16:27:32;8.07;;;5.65;;
22138;SDS011;25815;52.582;13.408;2022-08-18T16:29:58;9.23;;;5.78;;
22138;SDS011;25815;52.582;13.408;2022-08-18T16:32:24;8.45;;;5.50;;
22138;SDS011;25815;52.582;13.408;2022-08-18T16:34:50;10.60;;;5.97;;
22138;SDS011;25815;52.582;13.408;2022-08-18T16:37:16;10.25;;;6.13;;
22138;SDS011;25815;52.582;13.408;2022-08-18T16:39:42;10.60;;;6.20;;
22138;SDS011;25815;52.582;13.408;2022-08-18T16:42:08;8.02;;;5.78;;
22138;SDS011;25815;52.582;13.408;2022-08-18T16:44:36;6.38;;;5.50;;
22138;SDS011;25815;52.582;13.408;2022-08-18T16:47:05;8.77;;;5.68;;